sensor_id;sensor_type;location;lat;lon;timestamp;pressure;altitude;pressure_sealevel;temperature;humidity
62864;BME280;48954;59.950;11.014;2023-03-04T00:01:01;99557.48;;;-0.18;44.73
62864;BME280;48954;59.950;11.014;2023-03-04T00:03:27;99557.37;;;-0.19;44.56
62864;BME280;48954;59.950;11.014;2023-03-04T00:05:53;99565.45;;;-0.21;45.00
62864;BME280;48954;59.950;11.014;2023-03-04T00:08:22;99557.20;;;-0.25;45.06
62864;BME280;48954;59.950;11.014;2023-03-04T00:10:48;99561.64;;;-0.29;45.07
62864;BME280;48954;59.950;11.014;2023-03-04T00:13:14;99558.23;;;-0.33;45.08
62864;BME280;48954;59.950;11.014;2023-03-04T00:15:42;99560.52;;;-0.34;44.66
62864;BME280;48954;59.950;11.014;2023-03-04T00:18:08;99562.46;;;-0.35;44.70
62864;BME280;48954;59.950;11.014;2023-03-04T00:20:35;99565.29;;;-0.36;44.66
62864;BME280;48954;59.950;11.014;2023-03-04T00:23:01;99564.13;;;-0.38;45.25
62864;BME280;48954;59.950;11.014;2023-03-04T00:25:26;99568.38;;;-0.44;45.14
62864;BME280;48954;59.950;11.014;2023-03-04T00:27:52;99570.79;;;-0.47;44.72
62864;BME280;48954;59.950;11.014;2023-03-04T00:30:20;99576.23;;;-0.50;45.05
62864;BME280;48954;59.950;11.014;2023-03-04T00:32:46;99576.63;;;-0.52;44.58
62864;BME280;48954;59.950;11.014;2023-03-04T00:35:12;99572.95;;;-0.54;44.96
62864;BME280;48954;59.950;11.014;2023-03-04T00:37:39;99580.34;;;-0.57;44.81
62864;BME280;48954;59.950;11.014;2023-03-04T00:40:10;99579.45;;;-0.60;44.93
62864;BME280;48954;59.950;11.014;2023-03-04T00:42:37;99580.27;;;-0.60;45.06
62864;BME280;48954;59.950;11.014;2023-03-04T00:45:05;99577.67;;;-0.61;44.82
62864;BME280;48954;59.950;11.014;2023-03-04T00:47:33;99577.11;;;-0.64;45.04
62864;BME280;48954;59.950;11.014;2023-03-04T00:49:59;99580.64;;;-0.67;44.73
62864;BME280;48954;59.950;11.014;2023-03-04T00:52:27;99586.58;;;-0.72;44.82
62864;BME280;48954;59.950;11.014;2023-03-04T00:54:54;99592.02;;;-0.77;44.99
62864;BME280;48954;59.950;11.014;2023-03-04T00:57:20;99602.80;;;-0.82;45.25
62864;BME280;48954;59.950;11.014;2023-03-04T00:59:48;99600.90;;;-0.88;45.25
62864;BME280;48954;59.950;11.014;2023-03-04T01:02:14;99604.05;;;-0.93;45.40
62864;BME280;48954;59.950;11.014;2023-03-04T01:04:41;99607.06;;;-0.97;45.20
62864;BME280;48954;59.950;11.014;2023-03-04T01:07:09;99608.50;;;-1.01;45.52
62864;BME280;48954;59.950;11.014;2023-03-04T01:09:35;99612.62;;;-1.06;45.65
62864;BME280;48954;59.950;11.014;2023-03-04T01:12:01;99613.36;;;-1.10;45.49
62864;BME280;48954;59.950;11.014;2023-03-04T01:14:28;99610.76;;;-1.15;45.62
62864;BME280;48954;59.950;11.014;2023-03-04T01:16:55;99610.54;;;-1.19;45.57
62864;BME280;48954;59.950;11.014;2023-03-04T01:19:21;99611.42;;;-1.23;45.72
62864;BME280;48954;59.950;11.014;2023-03-04T01:21:47;99614.16;;;-1.27;45.80
62864;BME280;48954;59.950;11.014;2023-03-04T01:24:13;99615.41;;;-1.27;45.68
62864;BME280;48954;59.950;11.014;2023-03-04T01:26:39;99616.48;;;-1.28;45.67
62864;BME280;48954;59.950;11.014;2023-03-04T01:29:05;99618.98;;;-1.31;46.03
62864;BME280;48954;59.950;11.014;2023-03-04T01:31:32;99619.53;;;-1.34;45.64
62864;BME280;48954;59.950;11.014;2023-03-04T01:33:58;99616.80;;;-1.38;45.57
62864;BME280;48954;59.950;11.014;2023-03-04T01:36:24;99620.44;;;-1.40;45.58
62864;BME280;48954;59.950;11.014;2023-03-04T01:38:50;99615.86;;;-1.41;45.75
62864;BME280;48954;59.950;11.014;2023-03-04T01:41:21;99621.77;;;-1.43;45.11
62864;BME280;48954;59.950;11.014;2023-03-04T01:43:48;99628.16;;;-1.45;45.11
62864;BME280;48954;59.950;11.014;2023-03-04T01:46:14;99632.11;;;-1.47;45.45
62864;BME280;48954;59.950;11.014;2023-03-04T01:48:43;99634.08;;;-1.51;45.03
62864;BME280;48954;59.950;11.014;2023-03-04T01:51:13;99636.35;;;-1.51;44.79
62864;BME280;48954;59.950;11.014;2023-03-04T01:53:41;99638.98;;;-1.51;45.37
62864;BME280;48954;59.950;11.014;2023-03-04T01:56:19;99640.70;;;-1.55;45.46
62864;BME280;48954;59.950;11.014;2023-03-04T02:01:37;99646.98;;;-1.66;45.67
62864;BME280;48954;59.950;11.014;2023-03-04T02:04:05;99646.62;;;-1.73;45.65
62864;BME280;48954;59.950;11.014;2023-03-04T02:06:33;99649.79;;;-1.81;45.75
62864;BME280;48954;59.950;11.014;2023-03-04T02:08:59;99647.89;;;-1.86;46.03
62864;BME280;48954;59.950;11.014;2023-03-04T02:11:25;99652.17;;;-1.91;46.00
62864;BME280;48954;59.950;11.014;2023-03-04T02:13:51;99656.39;;;-1.93;46.01
62864;BME280;48954;59.950;11.014;2023-03-04T02:16:18;99655.90;;;-1.94;46.25
62864;BME280;48954;59.950;11.014;2023-03-04T02:18:47;99661.89;;;-1.93;46.22
62864;BME280;48954;59.950;11.014;2023-03-04T02:21:18;99663.71;;;-1.91;46.25
62864;BME280;48954;59.950;11.014;2023-03-04T02:24:13;99661.83;;;-1.91;45.92
62864;BME280;48954;59.950;11.014;2023-03-04T02:26:45;99670.81;;;-1.89;45.95
62864;BME280;48954;59.950;11.014;2023-03-04T02:29:13;99671.73;;;-1.88;46.22
62864;BME280;48954;59.950;11.014;2023-03-04T02:31:47;99671.44;;;-1.84;46.07
62864;BME280;48954;59.950;11.014;2023-03-04T02:34:18;99677.48;;;-1.80;45.88
62864;BME280;48954;59.950;11.014;2023-03-04T02:36:48;99682.98;;;-1.77;46.22
62864;BME280;48954;59.950;11.014;2023-03-04T02:41:51;99676.66;;;-1.73;45.72
62864;BME280;48954;59.950;11.014;2023-03-04T02:46:50;99683.17;;;-1.73;45.68
62864;BME280;48954;59.950;11.014;2023-03-04T02:49:18;99685.71;;;-1.74;45.87
62864;BME280;48954;59.950;11.014;2023-03-04T02:51:44;99685.77;;;-1.76;45.67
62864;BME280;48954;59.950;11.014;2023-03-04T02:54:22;99685.46;;;-1.78;45.85
62864;BME280;48954;59.950;11.014;2023-03-04T02:56:50;99686.08;;;-1.82;46.15
62864;BME280;48954;59.950;11.014;2023-03-04T02:59:17;99691.08;;;-1.86;45.76
62864;BME280;48954;59.950;11.014;2023-03-04T03:01:44;99689.90;;;-1.89;45.90
62864;BME280;48954;59.950;11.014;2023-03-04T03:04:10;99693.73;;;-1.91;45.85
62864;BME280;48954;59.950;11.014;2023-03-04T03:06:36;99691.81;;;-1.94;45.66
62864;BME280;48954;59.950;11.014;2023-03-04T03:09:02;99692.98;;;-1.97;45.88
62864;BME280;48954;59.950;11.014;2023-03-04T03:11:29;99694.93;;;-2.00;46.15
62864;BME280;48954;59.950;11.014;2023-03-04T03:13:56;99698.60;;;-2.02;45.79
62864;BME280;48954;59.950;11.014;2023-03-04T03:16:22;99696.56;;;-2.05;45.68
62864;BME280;48954;59.950;11.014;2023-03-04T03:19:06;99705.66;;;-2.04;45.46
62864;BME280;48954;59.950;11.014;2023-03-04T03:21:33;99711.70;;;-2.06;45.95
62864;BME280;48954;59.950;11.014;2023-03-04T03:24:03;99710.33;;;-2.07;45.83
62864;BME280;48954;59.950;11.014;2023-03-04T03:26:30;99702.64;;;-2.08;45.71
62864;BME280;48954;59.950;11.014;2023-03-04T03:28:58;99705.23;;;-2.10;45.62
62864;BME280;48954;59.950;11.014;2023-03-04T03:31:25;99702.21;;;-2.11;45.39
62864;BME280;48954;59.950;11.014;2023-03-04T03:33:54;99702.55;;;-2.12;45.46
62864;BME280;48954;59.950;11.014;2023-03-04T03:36:21;99696.45;;;-2.10;45.44
62864;BME280;48954;59.950;11.014;2023-03-04T03:38:47;99693.98;;;-2.05;45.17
62864;BME280;48954;59.950;11.014;2023-03-04T03:41:14;99689.82;;;-2.03;45.45
62864;BME280;48954;59.950;11.014;2023-03-04T03:43:40;99695.27;;;-2.02;45.24
62864;BME280;48954;59.950;11.014;2023-03-04T03:46:06;99689.77;;;-2.01;44.83
62864;BME280;48954;59.950;11.014;2023-03-04T03:48:33;99694.23;;;-1.99;44.83
62864;BME280;48954;59.950;11.014;2023-03-04T03:50:59;99690.98;;;-1.99;44.84
62864;BME280;48954;59.950;11.014;2023-03-04T03:53:25;99698.77;;;-2.00;45.01
62864;BME280;48954;59.950;11.014;2023-03-04T03:55:51;99695.70;;;-2.02;44.91
62864;BME280;48954;59.950;11.014;2023-03-04T03:58:17;99697.31;;;-2.02;44.79
62864;BME280;48954;59.950;11.014;2023-03-04T04:00:44;99703.66;;;-2.02;45.01
62864;BME280;48954;59.950;11.014;2023-03-04T04:03:13;99704.66;;;-2.06;45.08
62864;BME280;48954;59.950;11.014;2023-03-04T04:05:42;99709.65;;;-2.10;45.10
62864;BME280;48954;59.950;11.014;2023-03-04T04:08:13;99712.19;;;-2.13;45.28
62864;BME280;48954;59.950;11.014;2023-03-04T04:10:40;99714.73;;;-2.14;45.23
62864;BME280;48954;59.950;11.014;2023-03-04T04:13:06;99713.22;;;-2.14;45.06
62864;BME280;48954;59.950;11.014;2023-03-04T04:15:32;99722.05;;;-2.14;45.11
62864;BME280;48954;59.950;11.014;2023-03-04T04:17:58;99719.30;;;-2.14;45.03
62864;BME280;48954;59.950;11.014;2023-03-04T04:20:25;99719.85;;;-2.14;45.19
62864;BME280;48954;59.950;11.014;2023-03-04T04:22:51;99721.30;;;-2.18;45.25
62864;BME280;48954;59.950;11.014;2023-03-04T04:25:17;99717.17;;;-2.21;45.30
62864;BME280;48954;59.950;11.014;2023-03-04T04:27:44;99717.73;;;-2.23;44.95
62864;BME280;48954;59.950;11.014;2023-03-04T04:30:10;99722.21;;;-2.24;45.03
62864;BME280;48954;59.950;11.014;2023-03-04T04:32:37;99721.19;;;-2.27;45.47
62864;BME280;48954;59.950;11.014;2023-03-04T04:35:03;99724.38;;;-2.29;45.08
62864;BME280;48954;59.950;11.014;2023-03-04T04:37:30;99726.33;;;-2.32;45.04
62864;BME280;48954;59.950;11.014;2023-03-04T04:39:56;99733.40;;;-2.33;45.01
62864;BME280;48954;59.950;11.014;2023-03-04T04:42:23;99734.16;;;-2.36;45.12
62864;BME280;48954;59.950;11.014;2023-03-04T04:44:49;99739.02;;;-2.40;45.24
62864;BME280;48954;59.950;11.014;2023-03-04T04:47:15;99738.11;;;-2.41;45.59
62864;BME280;48954;59.950;11.014;2023-03-04T04:49:41;99740.31;;;-2.43;45.29
62864;BME280;48954;59.950;11.014;2023-03-04T04:52:07;99743.44;;;-2.44;45.71
62864;BME280;48954;59.950;11.014;2023-03-04T04:54:33;99741.08;;;-2.44;45.38
62864;BME280;48954;59.950;11.014;2023-03-04T04:56:59;99737.95;;;-2.44;45.36
62864;BME280;48954;59.950;11.014;2023-03-04T04:59:26;99735.02;;;-2.47;45.74
62864;BME280;48954;59.950;11.014;2023-03-04T05:01:52;99734.96;;;-2.49;45.72
62864;BME280;48954;59.950;11.014;2023-03-04T05:04:18;99736.95;;;-2.50;45.62
62864;BME280;48954;59.950;11.014;2023-03-04T05:06:44;99732.70;;;-2.53;45.66
62864;BME280;48954;59.950;11.014;2023-03-04T05:09:11;99731.57;;;-2.53;45.93
62864;BME280;48954;59.950;11.014;2023-03-04T05:11:40;99730.44;;;-2.55;45.59
62864;BME280;48954;59.950;11.014;2023-03-04T05:14:06;99735.34;;;-2.56;45.78
62864;BME280;48954;59.950;11.014;2023-03-04T05:16:32;99734.80;;;-2.57;45.79
62864;BME280;48954;59.950;11.014;2023-03-04T05:19:01;99743.58;;;-2.58;45.93
62864;BME280;48954;59.950;11.014;2023-03-04T05:21:30;99739.02;;;-2.60;45.92
62864;BME280;48954;59.950;11.014;2023-03-04T05:23:56;99747.00;;;-2.62;46.12
62864;BME280;48954;59.950;11.014;2023-03-04T05:26:23;99748.95;;;-2.65;46.06
62864;BME280;48954;59.950;11.014;2023-03-04T05:28:49;99749.80;;;-2.69;46.11
62864;BME280;48954;59.950;11.014;2023-03-04T05:31:15;99752.08;;;-2.72;46.16
62864;BME280;48954;59.950;11.014;2023-03-04T05:33:41;99754.67;;;-2.75;45.70
62864;BME280;48954;59.950;11.014;2023-03-04T05:36:07;99754.67;;;-2.77;45.69
62864;BME280;48954;59.950;11.014;2023-03-04T05:38:33;99754.30;;;-2.80;45.59
62864;BME280;48954;59.950;11.014;2023-03-04T05:41:02;99756.88;;;-2.84;46.12
62864;BME280;48954;59.950;11.014;2023-03-04T05:43:29;99751.78;;;-2.87;45.80
62864;BME280;48954;59.950;11.014;2023-03-04T05:45:56;99750.98;;;-2.88;46.18
62864;BME280;48954;59.950;11.014;2023-03-04T05:48:26;99752.48;;;-2.90;45.78
62864;BME280;48954;59.950;11.014;2023-03-04T05:50:54;99749.41;;;-2.92;46.04
62864;BME280;48954;59.950;11.014;2023-03-04T05:53:21;99753.08;;;-2.93;45.87
62864;BME280;48954;59.950;11.014;2023-03-04T05:55:48;99750.86;;;-2.95;45.82
62864;BME280;48954;59.950;11.014;2023-03-04T05:58:15;99755.48;;;-2.96;45.85
62864;BME280;48954;59.950;11.014;2023-03-04T06:00:41;99760.65;;;-2.97;45.98
62864;BME280;48954;59.950;11.014;2023-03-04T06:03:16;99757.59;;;-2.98;45.99
62864;BME280;48954;59.950;11.014;2023-03-04T06:05:42;99759.20;;;-2.97;45.61
62864;BME280;48954;59.950;11.014;2023-03-04T06:08:20;99763.52;;;-2.98;45.70
62864;BME280;48954;59.950;11.014;2023-03-04T06:19:38;99773.38;;;-3.01;46.30
62864;BME280;48954;59.950;11.014;2023-03-04T06:22:05;99777.30;;;-3.03;46.30
62864;BME280;48954;59.950;11.014;2023-03-04T06:24:33;99784.19;;;-3.05;46.40
62864;BME280;48954;59.950;11.014;2023-03-04T06:26:59;99785.80;;;-3.07;46.23
62864;BME280;48954;59.950;11.014;2023-03-04T06:29:25;99787.46;;;-3.07;46.01
62864;BME280;48954;59.950;11.014;2023-03-04T06:31:55;99786.39;;;-3.05;45.90
62864;BME280;48954;59.950;11.014;2023-03-04T06:34:21;99793.71;;;-3.05;46.29
62864;BME280;48954;59.950;11.014;2023-03-04T06:36:52;99789.41;;;-3.06;46.25
62864;BME280;48954;59.950;11.014;2023-03-04T06:39:17;99794.46;;;-3.07;46.26
62864;BME280;48954;59.950;11.014;2023-03-04T06:41:46;99796.45;;;-3.06;45.78
62864;BME280;48954;59.950;11.014;2023-03-04T06:44:12;99803.35;;;-3.03;46.26
62864;BME280;48954;59.950;11.014;2023-03-04T06:46:38;99804.48;;;-3.01;46.23
62864;BME280;48954;59.950;11.014;2023-03-04T06:49:10;99803.95;;;-3.01;46.60
62864;BME280;48954;59.950;11.014;2023-03-04T06:51:37;99811.38;;;-3.01;46.39
62864;BME280;48954;59.950;11.014;2023-03-04T06:54:03;99809.70;;;-2.99;46.26
62864;BME280;48954;59.950;11.014;2023-03-04T06:56:30;99807.37;;;-2.97;46.42
62864;BME280;48954;59.950;11.014;2023-03-04T06:58:59;99809.09;;;-2.97;46.43
62864;BME280;48954;59.950;11.014;2023-03-04T07:01:26;99812.76;;;-2.95;46.33
62864;BME280;48954;59.950;11.014;2023-03-04T07:04:03;99810.29;;;-2.92;46.59
62864;BME280;48954;59.950;11.014;2023-03-04T07:06:30;99814.28;;;-2.87;46.08
62864;BME280;48954;59.950;11.014;2023-03-04T07:08:57;99816.52;;;-2.84;46.19
62864;BME280;48954;59.950;11.014;2023-03-04T07:11:25;99814.05;;;-2.79;45.86
62864;BME280;48954;59.950;11.014;2023-03-04T07:13:52;99809.92;;;-2.75;45.67
62864;BME280;48954;59.950;11.014;2023-03-04T07:16:20;99816.09;;;-2.69;45.66
62864;BME280;48954;59.950;11.014;2023-03-04T07:18:48;99815.29;;;-2.63;45.35
62864;BME280;48954;59.950;11.014;2023-03-04T07:21:19;99818.40;;;-2.60;45.71
62864;BME280;48954;59.950;11.014;2023-03-04T07:23:45;99820.06;;;-2.56;45.46
62864;BME280;48954;59.950;11.014;2023-03-04T07:26:16;99819.20;;;-2.52;45.54
62864;BME280;48954;59.950;11.014;2023-03-04T07:28:46;99826.41;;;-2.47;45.70
62864;BME280;48954;59.950;11.014;2023-03-04T07:31:26;99828.60;;;-2.44;45.20
62864;BME280;48954;59.950;11.014;2023-03-04T07:34:06;99828.65;;;-2.39;45.30
62864;BME280;48954;59.950;11.014;2023-03-04T07:36:38;99832.42;;;-2.34;45.42
62864;BME280;48954;59.950;11.014;2023-03-04T07:39:05;99839.30;;;-2.29;45.64
62864;BME280;48954;59.950;11.014;2023-03-04T07:41:34;99840.33;;;-2.25;45.42
62864;BME280;48954;59.950;11.014;2023-03-04T07:50:39;99848.63;;;-2.07;45.99
62864;BME280;48954;59.950;11.014;2023-03-04T07:53:44;99842.67;;;-2.03;45.30
62864;BME280;48954;59.950;11.014;2023-03-04T07:56:31;99848.75;;;-1.93;44.71
62864;BME280;48954;59.950;11.014;2023-03-04T07:58:58;99848.86;;;-1.80;45.16
62864;BME280;48954;59.950;11.014;2023-03-04T08:01:36;99846.91;;;-1.66;44.86
62864;BME280;48954;59.950;11.014;2023-03-04T08:04:05;99848.81;;;-1.55;44.14
62864;BME280;48954;59.950;11.014;2023-03-04T08:06:35;99851.02;;;-1.37;44.57
62864;BME280;48954;59.950;11.014;2023-03-04T08:09:04;99848.43;;;-1.16;44.30
62864;BME280;48954;59.950;11.014;2023-03-04T08:11:31;99852.77;;;-1.04;44.03
62864;BME280;48954;59.950;11.014;2023-03-04T08:13:58;99850.20;;;-0.97;43.97
62864;BME280;48954;59.950;11.014;2023-03-04T08:16:25;99848.33;;;-0.92;43.63
62864;BME280;48954;59.950;11.014;2023-03-04T08:18:55;99848.14;;;-0.83;43.33
62864;BME280;48954;59.950;11.014;2023-03-04T08:21:23;99849.23;;;-0.70;43.09
62864;BME280;48954;59.950;11.014;2023-03-04T08:23:51;99848.45;;;-0.54;43.77
62864;BME280;48954;59.950;11.014;2023-03-04T08:26:27;99845.46;;;-0.35;42.88
62864;BME280;48954;59.950;11.014;2023-03-04T08:29:11;99842.98;;;-0.19;42.41
62864;BME280;48954;59.950;11.014;2023-03-04T08:31:37;99843.46;;;-0.18;41.49
62864;BME280;48954;59.950;11.014;2023-03-04T08:34:04;99841.98;;;-0.17;41.81
62864;BME280;48954;59.950;11.014;2023-03-04T08:39:03;99835.91;;;-0.10;41.58
62864;BME280;48954;59.950;11.014;2023-03-04T08:41:32;99839.67;;;-0.09;41.09
62864;BME280;48954;59.950;11.014;2023-03-04T08:43:58;99838.70;;;-0.02;41.24
62864;BME280;48954;59.950;11.014;2023-03-04T08:46:24;99842.98;;;0.15;40.93
62864;BME280;48954;59.950;11.014;2023-03-04T08:48:50;99839.32;;;0.19;40.45
62864;BME280;48954;59.950;11.014;2023-03-04T08:51:17;99844.20;;;0.23;40.76
62864;BME280;48954;59.950;11.014;2023-03-04T08:53:43;99842.90;;;0.30;40.08
62864;BME280;48954;59.950;11.014;2023-03-04T08:56:09;99843.66;;;0.36;40.62
62864;BME280;48954;59.950;11.014;2023-03-04T08:58:38;99845.62;;;0.39;39.73
62864;BME280;48954;59.950;11.014;2023-03-04T09:01:07;99841.36;;;0.46;39.44
62864;BME280;48954;59.950;11.014;2023-03-04T09:03:33;99843.73;;;0.56;39.78
62864;BME280;48954;59.950;11.014;2023-03-04T09:06:05;99841.67;;;0.59;39.10
62864;BME280;48954;59.950;11.014;2023-03-04T09:08:50;99841.58;;;0.70;39.39
62864;BME280;48954;59.950;11.014;2023-03-04T09:11:53;99831.23;;;0.89;39.06
62864;BME280;48954;59.950;11.014;2023-03-04T09:14:20;99836.51;;;0.98;39.03
62864;BME280;48954;59.950;11.014;2023-03-04T09:16:46;99839.30;;;1.19;39.22
62864;BME280;48954;59.950;11.014;2023-03-04T09:19:13;99839.25;;;1.37;38.89
62864;BME280;48954;59.950;11.014;2023-03-04T09:21:42;99843.78;;;1.58;38.30
62864;BME280;48954;59.950;11.014;2023-03-04T09:24:10;99837.32;;;1.56;37.99
62864;BME280;48954;59.950;11.014;2023-03-04T09:26:37;99835.09;;;1.49;37.44
62864;BME280;48954;59.950;11.014;2023-03-04T09:29:03;99833.05;;;1.65;38.15
62864;BME280;48954;59.950;11.014;2023-03-04T09:31:29;99835.30;;;1.71;37.79
62864;BME280;48954;59.950;11.014;2023-03-04T09:33:57;99826.20;;;1.80;37.91
62864;BME280;48954;59.950;11.014;2023-03-04T09:36:23;99823.81;;;2.14;36.76
62864;BME280;48954;59.950;11.014;2023-03-04T09:38:50;99833.52;;;2.41;36.72
62864;BME280;48954;59.950;11.014;2023-03-04T09:43:57;99831.31;;;2.74;36.94
62864;BME280;48954;59.950;11.014;2023-03-04T09:46:36;99829.56;;;3.36;36.49
62864;BME280;48954;59.950;11.014;2023-03-04T09:49:12;99832.08;;;3.76;35.22
62864;BME280;48954;59.950;11.014;2023-03-04T09:51:48;99828.85;;;4.11;35.51
62864;BME280;48954;59.950;11.014;2023-03-04T09:56:56;99825.14;;;4.82;34.41
62864;BME280;48954;59.950;11.014;2023-03-04T09:59:34;99826.29;;;4.73;34.39
62864;BME280;48954;59.950;11.014;2023-03-04T10:02:21;99829.51;;;4.26;34.35
62864;BME280;48954;59.950;11.014;2023-03-04T10:04:55;99820.08;;;4.11;34.19
62864;BME280;48954;59.950;11.014;2023-03-04T10:07:32;99818.02;;;4.15;33.75
62864;BME280;48954;59.950;11.014;2023-03-04T10:10:03;99813.80;;;4.33;33.30
62864;BME280;48954;59.950;11.014;2023-03-04T10:12:33;99822.22;;;4.20;33.52
62864;BME280;48954;59.950;11.014;2023-03-04T10:15:06;99825.86;;;4.34;33.46
62864;BME280;48954;59.950;11.014;2023-03-04T10:17:42;99825.29;;;4.29;33.25
62864;BME280;48954;59.950;11.014;2023-03-04T10:20:16;99820.23;;;3.94;33.18
62864;BME280;48954;59.950;11.014;2023-03-04T10:22:48;99821.09;;;3.64;33.22
62864;BME280;48954;59.950;11.014;2023-03-04T10:25:21;99824.78;;;3.97;33.04
62864;BME280;48954;59.950;11.014;2023-03-04T10:27:57;99821.88;;;4.66;32.48
62864;BME280;48954;59.950;11.014;2023-03-04T10:31:09;99819.05;;;4.75;32.29
62864;BME280;48954;59.950;11.014;2023-03-04T10:33:35;99822.02;;;4.48;32.61
62864;BME280;48954;59.950;11.014;2023-03-04T10:39:08;99814.48;;;3.99;31.99
62864;BME280;48954;59.950;11.014;2023-03-04T10:41:41;99809.91;;;3.85;31.38
62864;BME280;48954;59.950;11.014;2023-03-04T10:46:45;99800.31;;;5.74;30.98
62864;BME280;48954;59.950;11.014;2023-03-04T10:49:16;99801.20;;;6.37;30.54
62864;BME280;48954;59.950;11.014;2023-03-04T10:54:26;99790.98;;;5.94;29.95
62864;BME280;48954;59.950;11.014;2023-03-04T11:00:26;99789.97;;;5.51;30.17
62864;BME280;48954;59.950;11.014;2023-03-04T11:06:23;99783.64;;;5.58;29.88
62864;BME280;48954;59.950;11.014;2023-03-04T11:09:26;99783.36;;;5.10;29.65
62864;BME280;48954;59.950;11.014;2023-03-04T11:12:13;99781.89;;;4.71;29.69
62864;BME280;48954;59.950;11.014;2023-03-04T11:15:02;99781.40;;;4.05;30.45
62864;BME280;48954;59.950;11.014;2023-03-04T11:17:47;99776.13;;;3.67;30.62
62864;BME280;48954;59.950;11.014;2023-03-04T11:20:33;99770.45;;;3.45;30.62
62864;BME280;48954;59.950;11.014;2023-03-04T11:27:33;99759.88;;;3.60;30.34
62864;BME280;48954;59.950;11.014;2023-03-04T11:41:29;99767.35;;;3.45;31.30
62864;BME280;48954;59.950;11.014;2023-03-04T11:44:47;99761.10;;;3.08;30.91
62864;BME280;48954;59.950;11.014;2023-03-04T11:55:12;99758.40;;;2.76;30.49
62864;BME280;48954;59.950;11.014;2023-03-04T12:05:23;99752.73;;;2.46;31.43
62864;BME280;48954;59.950;11.014;2023-03-04T12:36:25;99729.06;;;1.29;32.10
62864;BME280;48954;59.950;11.014;2023-03-04T12:43:33;99706.39;;;1.28;32.46
62864;BME280;48954;59.950;11.014;2023-03-04T12:47:25;99698.00;;;1.79;32.13
62864;BME280;48954;59.950;11.014;2023-03-04T12:52:33;99691.20;;;2.06;31.94
62864;BME280;48954;59.950;11.014;2023-03-04T12:55:22;99689.27;;;1.91;31.70
62864;BME280;48954;59.950;11.014;2023-03-04T12:57:55;99685.78;;;1.78;32.08
62864;BME280;48954;59.950;11.014;2023-03-04T13:00:52;99686.34;;;1.77;31.58
62864;BME280;48954;59.950;11.014;2023-03-04T13:06:42;99675.41;;;1.91;31.41
62864;BME280;48954;59.950;11.014;2023-03-04T13:09:37;99670.45;;;2.09;31.26
62864;BME280;48954;59.950;11.014;2023-03-04T13:12:23;99671.85;;;2.15;31.47
62864;BME280;48954;59.950;11.014;2023-03-04T13:17:43;99669.83;;;2.06;31.13
62864;BME280;48954;59.950;11.014;2023-03-04T13:41:13;99656.31;;;2.20;31.52
62864;BME280;48954;59.950;11.014;2023-03-04T13:43:43;99651.36;;;2.87;30.99
62864;BME280;48954;59.950;11.014;2023-03-04T13:46:40;99647.81;;;3.38;30.73
62864;BME280;48954;59.950;11.014;2023-03-04T13:49:20;99647.77;;;3.11;30.97
62864;BME280;48954;59.950;11.014;2023-03-04T13:51:49;99647.97;;;2.97;30.93
62864;BME280;48954;59.950;11.014;2023-03-04T13:54:34;99641.42;;;2.92;30.95
62864;BME280;48954;59.950;11.014;2023-03-04T13:57:20;99635.98;;;3.56;30.35
62864;BME280;48954;59.950;11.014;2023-03-04T13:59:54;99627.97;;;3.43;30.14
62864;BME280;48954;59.950;11.014;2023-03-04T14:02:32;99629.95;;;3.83;30.16
62864;BME280;48954;59.950;11.014;2023-03-04T14:05:00;99624.97;;;4.20;29.70
62864;BME280;48954;59.950;11.014;2023-03-04T14:12:59;99608.48;;;3.13;30.25
62864;BME280;48954;59.950;11.014;2023-03-04T14:15:30;99607.45;;;2.99;30.54
62864;BME280;48954;59.950;11.014;2023-03-04T14:18:00;99611.70;;;2.95;30.57
62864;BME280;48954;59.950;11.014;2023-03-04T14:20:32;99603.61;;;3.43;30.55
62864;BME280;48954;59.950;11.014;2023-03-04T14:23:21;99595.27;;;5.75;29.34
62864;BME280;48954;59.950;11.014;2023-03-04T14:26:23;99591.41;;;7.23;28.05
62864;BME280;48954;59.950;11.014;2023-03-04T14:28:51;99586.54;;;7.93;27.50
62864;BME280;48954;59.950;11.014;2023-03-04T14:31:23;99585.04;;;8.57;27.74
62864;BME280;48954;59.950;11.014;2023-03-04T14:33:53;99573.66;;;9.78;27.25
62864;BME280;48954;59.950;11.014;2023-03-04T14:36:42;99573.51;;;11.03;25.89
62864;BME280;48954;59.950;11.014;2023-03-04T14:42:18;99558.86;;;13.28;23.98
62864;BME280;48954;59.950;11.014;2023-03-04T14:44:49;99556.88;;;13.69;23.85
62864;BME280;48954;59.950;11.014;2023-03-04T14:47:42;99558.33;;;14.01;23.99
62864;BME280;48954;59.950;11.014;2023-03-04T14:50:17;99557.25;;;14.55;23.03
62864;BME280;48954;59.950;11.014;2023-03-04T14:56:02;99553.56;;;10.50;23.77
62864;BME280;48954;59.950;11.014;2023-03-04T14:59:12;99546.98;;;8.55;24.40
62864;BME280;48954;59.950;11.014;2023-03-04T15:02:08;99550.16;;;7.14;25.02
62864;BME280;48954;59.950;11.014;2023-03-04T15:05:14;99550.75;;;6.14;25.39
62864;BME280;48954;59.950;11.014;2023-03-04T15:08:27;99545.19;;;5.56;25.81
62864;BME280;48954;59.950;11.014;2023-03-04T15:11:26;99540.83;;;4.97;25.86
62864;BME280;48954;59.950;11.014;2023-03-04T15:14:41;99538.55;;;5.42;25.68
62864;BME280;48954;59.950;11.014;2023-03-04T15:20:25;99539.70;;;5.61;25.43
62864;BME280;48954;59.950;11.014;2023-03-04T15:31:30;99536.99;;;3.77;26.62
62864;BME280;48954;59.950;11.014;2023-03-04T15:34:16;99533.32;;;2.99;26.81
62864;BME280;48954;59.950;11.014;2023-03-04T15:45:42;99523.61;;;1.52;28.17
62864;BME280;48954;59.950;11.014;2023-03-04T15:48:14;99516.98;;;1.27;28.26
62864;BME280;48954;59.950;11.014;2023-03-04T15:50:58;99517.48;;;1.02;28.77
62864;BME280;48954;59.950;11.014;2023-03-04T15:53:49;99512.89;;;0.80;28.74
62864;BME280;48954;59.950;11.014;2023-03-04T15:56:34;99509.15;;;0.59;29.06
62864;BME280;48954;59.950;11.014;2023-03-04T15:59:20;99505.11;;;0.44;29.26
62864;BME280;48954;59.950;11.014;2023-03-04T16:02:04;99505.13;;;0.31;29.54
62864;BME280;48954;59.950;11.014;2023-03-04T16:04:46;99503.23;;;0.19;29.51
62864;BME280;48954;59.950;11.014;2023-03-04T16:07:29;99509.04;;;0.11;29.89
62864;BME280;48954;59.950;11.014;2023-03-04T16:10:31;99504.98;;;0.02;30.44